Espy, Pennsylvania
Current Conditions -  °F | °C
As of 6:15 PM on Thursday 20 Nov 2014 (Local Time) from KHZL Reporting Station
Clear Clear  
Wind Chill: 19°   Ceiling: Unl
Heat Index: 28°   Visibility: 10mi
Dew Point: 10°   Wind: 10mph
Humidity: 47%   Direction: 270°W
Pressure: 29.93"   Gusts: 18mph
Location:  41.0301°N, 76.4558°W
Report Text: KHZL 202315Z AUTO 27009G16KT 10SM CLR M02/M12 A2993 RMK AO2
Loading
Personal Weather Stations






























Interactive Weather Map New forecast layout! Learn more

10-Day Weather Forecast

Advertisements
Track Severe Weather on mobile